Time;durP1;ratioP1;P1;durP2;ratioP2;P2;SDS_P1;SDS_P2;PMS_P1;PMS_P2;Temp;Humidity;BMP_temperature;BMP_pressure;BME280_temperature;BME280_humidity;BME280_pressure;Samples;Min_cycle;Max_cycle;Signal;HPM_P1;HPM_P2
2022/03/27 00:00:51;;;;;;;42.45;21.60;;;;;;;6.67;52.03;97337.84;5046060;28;20503;-73
2022/03/27 00:03:17;;;;;;;47.63;25.48;;;;;;;6.64;51.42;97337.59;5045116;28;20048;-73
2022/03/27 00:05:44;;;;;;;49.17;24.58;;;;;;;6.65;51.59;97344.63;5046007;28;20053;-73
2022/03/27 00:08:10;;;;;;;47.72;24.48;;;;;;;6.61;51.14;97343.53;5045183;28;20052;-73
2022/03/27 00:13:22;;;;;;;55.60;26.23;;;;;;;6.56;51.49;97338.94;5025302;28;20060;-73
2022/03/27 00:15:49;;;;;;;49.38;22.90;;;;;;;6.54;52.39;97339.19;5027024;28;20352;-73
2022/03/27 00:18:15;;;;;;;44.33;22.00;;;;;;;6.48;49.89;97337.56;5025790;28;20061;-73
2022/03/27 00:20:42;;;;;;;47.17;22.80;;;;;;;6.40;49.42;97337.28;5026450;28;20668;-73
2022/03/27 00:23:08;;;;;;;45.90;22.10;;;;;;;6.31;49.63;97338.84;5026021;28;20504;-74
2022/03/27 00:25:35;;;;;;;48.22;23.83;;;;;;;6.25;50.08;97336.13;5026189;28;20419;-72
2022/03/27 00:28:03;;;;;;;48.00;23.83;;;;;;;6.18;51.02;97340.19;5026719;28;20054;-73
2022/03/27 00:30:30;;;;;;;53.03;24.88;;;;;;;6.15;51.66;97340.69;5025799;28;20858;-73
2022/03/27 00:32:57;;;;;;;46.38;21.83;;;;;;;6.09;51.82;97341.78;5027078;28;20060;-73
2022/03/27 00:35:24;;;;;;;46.80;23.65;;;;;;;6.05;51.19;97333.38;5025264;28;20056;-73
2022/03/27 00:37:52;;;;;;;47.70;24.27;;;;;;;6.05;51.97;97343.38;5026827;28;20053;-73
2022/03/27 00:40:19;;;;;;;52.85;24.33;;;;;;;6.03;51.71;97348.25;5025146;28;20053;-73
2022/03/27 00:42:45;;;;;;;48.28;23.02;;;;;;;5.97;51.95;97340.09;5029053;28;20052;-73
2022/03/27 00:45:13;;;;;;;44.40;21.52;;;;;;;5.90;50.58;97342.22;5025355;28;20060;-73
2022/03/27 00:47:40;;;;;;;44.15;23.33;;;;;;;5.86;50.63;97349.22;5026067;28;20054;-73
2022/03/27 00:50:07;;;;;;;46.92;24.35;;;;;;;5.82;52.07;97339.19;5025816;28;20057;-73
2022/03/27 00:52:34;;;;;;;48.65;25.02;;;;;;;5.77;52.46;97337.28;5025996;28;20045;-73
2022/03/27 00:55:00;;;;;;;55.90;26.23;;;;;;;5.74;53.33;97337.78;5026259;28;20053;-72
2022/03/27 00:57:27;;;;;;;51.35;25.77;;;;;;;5.76;53.53;97338.34;5025174;28;20037;-73
2022/03/27 00:59:53;;;;;;;44.88;22.60;;;;;;;5.73;53.09;97344.28;5026543;28;20060;-73
2022/03/27 01:02:22;;;;;;;42.97;21.45;;;;;;;5.66;51.73;97343.72;5025132;28;20064;-73
2022/03/27 01:04:49;;;;;;;43.00;21.38;;;;;;;5.57;51.55;97339.88;5026508;28;20752;-74
2022/03/27 01:07:18;;;;;;;46.15;22.17;;;;;;;5.50;52.09;97340.91;5025235;28;20068;-73
2022/03/27 01:09:45;;;;;;;44.60;23.23;;;;;;;5.49;52.59;97341.19;5025743;28;20471;-73
2022/03/27 01:12:20;;;;;;;50.58;25.10;;;;;;;5.44;53.10;97330.34;5027797;28;20061;-73
2022/03/27 01:14:47;;;;;;;52.95;25.42;;;;;;;5.42;54.24;97335.19;5025824;28;20609;-73
2022/03/27 01:17:16;;;;;;;54.08;25.90;;;;;;;5.36;54.92;97331.63;5029471;28;20057;-73
2022/03/27 01:19:46;;;;;;;50.55;25.23;;;;;;;5.35;54.75;97330.03;5029143;28;20044;-73
2022/03/27 01:22:15;;;;;;;60.72;26.05;;;;;;;5.33;54.66;97329.47;5029840;28;20095;-73
2022/03/27 01:24:42;;;;;;;58.35;27.48;;;;;;;5.33;54.52;97318.69;5029025;28;20057;-73
2022/03/27 01:27:09;;;;;;;51.28;25.20;;;;;;;5.33;54.93;97324.06;5029151;28;20061;-74
2022/03/27 01:29:36;;;;;;;55.78;26.13;;;;;;;5.35;54.70;97315.69;5029211;28;20045;-73
2022/03/27 01:32:04;;;;;;;53.67;25.33;;;;;;;5.34;54.97;97323.00;5029229;28;20050;-74
2022/03/27 01:34:31;;;;;;;45.72;23.02;;;;;;;5.35;54.00;97321.09;5029519;28;20055;-73
2022/03/27 01:37:02;;;;;;;48.35;23.60;;;;;;;5.28;52.72;97324.03;5029148;28;20057;-73
2022/03/27 01:39:29;;;;;;;49.70;23.33;;;;;;;5.20;52.88;97317.22;5029335;28;20061;-73
2022/03/27 01:41:56;;;;;;;47.53;23.63;;;;;;;5.13;53.29;97310.44;5031041;28;20052;-73
2022/03/27 01:44:22;;;;;;;52.70;25.27;;;;;;;5.08;55.14;97305.00;5029247;28;20045;-73
2022/03/27 01:46:49;;;;;;;52.63;23.67;;;;;;;5.07;55.47;97311.47;5028753;28;20060;-73
2022/03/27 01:49:16;;;;;;;45.20;23.05;;;;;;;5.03;55.56;97304.97;5029124;28;20045;-73
2022/03/27 01:51:44;;;;;;;43.80;21.67;;;;;;;5.02;55.56;97311.44;5028794;28;20057;-73
2022/03/27 01:54:13;;;;;;;39.38;21.38;;;;;;;4.98;55.67;97314.63;5028869;28;20054;-73
2022/03/27 01:56:42;;;;;;;44.20;22.13;;;;;;;4.95;55.78;97317.03;5028725;28;20053;-73
2022/03/27 01:59:10;;;;;;;46.92;21.48;;;;;;;4.95;55.84;97312.44;5028639;28;20041;-73
2022/03/27 02:01:37;;;;;;;42.90;22.25;;;;;;;4.94;55.18;97318.91;5029033;28;20661;-73
2022/03/27 02:04:04;;;;;;;45.88;20.77;;;;;;;4.94;55.04;97315.41;5028059;28;20057;-73
2022/03/27 02:06:30;;;;;;;43.60;21.38;;;;;;;4.93;54.79;97311.91;5028939;28;20049;-73
2022/03/27 02:08:58;;;;;;;38.15;20.15;;;;;;;4.88;55.79;97314.56;5028346;28;20061;-73
2022/03/27 02:11:25;;;;;;;41.42;21.40;;;;;;;4.86;56.47;97322.13;5030824;28;20045;-73
2022/03/27 02:13:53;;;;;;;42.22;20.70;;;;;;;4.84;56.62;97318.03;5028329;28;20049;-73
2022/03/27 02:16:19;;;;;;;41.95;20.80;;;;;;;4.82;57.29;97318.28;5028015;28;20049;-73
2022/03/27 02:18:46;;;;;;;44.55;20.70;;;;;;;4.81;57.36;97322.06;5028764;28;20056;-73
2022/03/27 02:21:13;;;;;;;37.70;20.33;;;;;;;4.81;56.63;97321.25;5027709;28;20600;-73
2022/03/27 02:23:39;;;;;;;39.28;19.45;;;;;;;4.81;56.86;97326.66;5028735;28;20050;-73
2022/03/27 02:26:06;;;;;;;39.65;19.92;;;;;;;4.76;57.46;97324.72;5027232;28;20380;-72
2022/03/27 02:28:33;;;;;;;37.88;20.25;;;;;;;4.74;57.09;97320.63;5028353;28;20504;-73
2022/03/27 02:31:01;;;;;;;36.95;19.58;;;;;;;4.71;57.32;97319.28;5027598;28;20648;-73
2022/03/27 02:33:29;;;;;;;35.15;19.45;;;;;;;4.71;57.28;97321.97;5028653;28;20056;-73
2022/03/27 02:35:55;;;;;;;41.45;20.48;;;;;;;4.69;56.46;97324.09;5027645;28;20057;-72
2022/03/27 02:38:22;;;;;;;45.95;20.83;;;;;;;4.64;56.13;97321.38;5028417;28;20496;-72
2022/03/27 02:40:48;;;;;;;37.33;20.60;;;;;;;4.61;56.47;97321.88;5030105;28;20041;-72
2022/03/27 02:43:15;;;;;;;36.47;19.33;;;;;;;4.57;57.14;97310.78;5027653;28;20420;-72
2022/03/27 02:45:41;;;;;;;39.10;18.48;;;;;;;4.52;57.34;97320.72;5027924;28;20045;-73
2022/03/27 02:48:10;;;;;;;34.85;17.67;;;;;;;4.49;57.66;97322.06;5027449;28;20049;-72
2022/03/27 02:50:39;;;;;;;40.42;19.70;;;;;;;4.45;58.02;97321.75;5028194;28;20041;-73
2022/03/27 02:53:06;;;;;;;37.00;18.42;;;;;;;4.42;58.21;97322.25;5027188;28;20115;-72
2022/03/27 02:55:32;;;;;;;36.58;19.17;;;;;;;4.39;58.15;97314.69;5028127;28;20045;-72
2022/03/27 02:58:00;;;;;;;37.83;17.83;;;;;;;4.38;58.02;97323.81;5027424;28;20045;-73
2022/03/27 03:00:26;;;;;;;34.05;17.35;;;;;;;4.36;57.88;97320.56;5027864;28;20049;-72
2022/03/27 03:02:53;;;;;;;29.75;16.67;;;;;;;4.36;57.77;97320.56;5027570;28;20060;-72
2022/03/27 03:05:22;;;;;;;34.95;16.25;;;;;;;4.35;57.70;97313.56;5026930;28;20579;-73
2022/03/27 03:07:49;;;;;;;31.05;15.98;;;;;;;4.32;57.34;97319.44;5027752;28;20084;-72
2022/03/27 03:10:16;;;;;;;31.05;16.35;;;;;;;4.28;57.16;97323.75;5027117;28;20054;-72
2022/03/27 03:12:43;;;;;;;31.80;15.45;;;;;;;4.26;56.98;97315.06;5030019;28;20659;-73
2022/03/27 03:15:10;;;;;;;29.60;16.40;;;;;;;4.24;56.69;97317.22;5026383;28;20053;-73
2022/03/27 03:17:37;;;;;;;32.95;15.85;;;;;;;4.22;56.89;97313.94;5027831;28;20042;-74
2022/03/27 03:20:06;;;;;;;33.63;16.20;;;;;;;4.21;57.01;97325.78;5026285;28;20128;-73
2022/03/27 03:22:35;;;;;;;37.00;18.50;;;;;;;4.18;56.13;97312.84;5027949;28;20744;-72
2022/03/27 03:25:02;;;;;;;35.35;17.40;;;;;;;4.13;55.78;97310.91;5026621;28;20057;-72
2022/03/27 03:27:28;;;;;;;33.10;16.80;;;;;;;4.09;55.25;97317.06;5027269;28;20045;-72
2022/03/27 03:29:55;;;;;;;31.52;16.42;;;;;;;4.06;55.38;97314.84;5027418;28;20084;-72
2022/03/27 03:32:24;;;;;;;35.53;17.45;;;;;;;4.01;56.33;97317.47;5026554;28;20138;-73
2022/03/27 03:34:50;;;;;;;33.75;16.63;;;;;;;3.98;57.63;97315.31;5027811;28;20076;-72
2022/03/27 03:37:17;;;;;;;34.67;17.00;;;;;;;3.96;57.97;97314.72;5025808;28;20534;-73
2022/03/27 03:39:45;;;;;;;39.97;17.45;;;;;;;3.92;57.73;97315.25;5026047;28;20053;-72
2022/03/27 03:42:12;;;;;;;36.92;18.42;;;;;;;3.91;58.50;97315.47;5026253;28;20053;-72
2022/03/27 03:44:38;;;;;;;34.42;18.20;;;;;;;3.90;58.90;97319.25;5026688;28;20038;-72
2022/03/27 03:47:05;;;;;;;33.35;17.05;;;;;;;3.89;59.10;97315.75;5033270;28;20060;-72
2022/03/27 03:49:32;;;;;;;33.75;17.33;;;;;;;3.88;58.88;97308.72;5047354;28;20045;-72
2022/03/27 03:51:58;;;;;;;30.60;16.35;;;;;;;3.87;58.33;97312.50;5046794;28;20057;-72
2022/03/27 03:54:25;;;;;;;34.88;17.90;;;;;;;3.85;58.23;97317.31;5046925;28;20069;-72
2022/03/27 03:56:52;;;;;;;31.13;16.58;;;;;;;3.83;58.77;97314.06;5046556;28;20059;-72
2022/03/27 03:59:19;;;;;;;34.95;16.20;;;;;;;3.81;58.82;97308.13;5046162;28;20049;-72
2022/03/27 04:01:46;;;;;;;30.35;16.20;;;;;;;3.81;58.76;97305.44;5046776;28;20060;-72
2022/03/27 04:04:13;;;;;;;33.80;16.35;;;;;;;3.81;59.02;97301.88;5046318;28;20049;-73
2022/03/27 04:06:39;;;;;;;29.13;15.90;;;;;;;3.80;59.69;97306.47;5046898;28;20115;-74
2022/03/27 04:09:06;;;;;;;35.05;15.48;;;;;;;3.81;59.38;97315.34;5045904;28;20060;-72
2022/03/27 04:11:32;;;;;;;31.13;15.27;;;;;;;3.80;58.92;97314.53;5046917;28;20048;-72
2022/03/27 04:14:00;;;;;;;33.75;16.35;;;;;;;3.77;59.06;97309.69;5046038;28;20458;-72
2022/03/27 04:16:28;;;;;;;28.77;15.30;;;;;;;3.76;58.19;97310.75;5035630;28;20053;-72
2022/03/27 04:18:54;;;;;;;31.23;15.10;;;;;;;3.73;58.79;97310.44;5026584;28;20128;-72
2022/03/27 04:21:21;;;;;;;28.17;14.23;;;;;;;3.71;58.60;97313.38;5025772;28;20559;-72
2022/03/27 04:23:47;;;;;;;28.60;13.77;;;;;;;3.70;58.57;97317.13;5026954;28;20524;-73
2022/03/27 04:26:14;;;;;;;34.80;16.17;;;;;;;3.70;58.91;97313.59;5025389;28;20049;-72
2022/03/27 04:28:40;;;;;;;27.77;15.05;;;;;;;3.70;57.93;97311.72;5027065;28;20041;-72
2022/03/27 04:31:08;;;;;;;30.15;14.80;;;;;;;3.69;57.61;97315.50;5025743;28;20061;-72
2022/03/27 04:33:34;;;;;;;29.05;14.00;;;;;;;3.69;57.68;97320.06;5027157;28;20048;-72
2022/03/27 04:36:03;;;;;;;28.73;14.13;;;;;;;3.64;57.31;97324.31;5025718;28;20129;-72
2022/03/27 04:38:30;;;;;;;26.80;14.52;;;;;;;3.58;56.95;97319.94;5025937;28;20052;-72
2022/03/27 04:40:56;;;;;;;26.85;15.27;;;;;;;3.53;57.26;97319.88;5025836;28;20053;-72
2022/03/27 04:43:23;;;;;;;26.85;13.57;;;;;;;3.50;57.69;97327.63;5025321;28;20053;-73
2022/03/27 04:45:49;;;;;;;30.27;15.23;;;;;;;3.46;58.49;97326.50;5031171;28;20148;-73
2022/03/27 04:48:17;;;;;;;27.13;14.02;;;;;;;3.43;58.60;97322.41;5025155;28;20065;-73
2022/03/27 04:50:44;;;;;;;26.20;13.60;;;;;;;3.40;58.51;97323.75;5028352;28;20129;-72
2022/03/27 04:53:11;;;;;;;28.23;13.30;;;;;;;3.37;58.64;97324.22;5029184;28;20049;-73
2022/03/27 04:55:37;;;;;;;29.60;13.68;;;;;;;3.36;58.56;97330.69;5029846;28;20049;-73
2022/03/27 04:58:08;;;;;;;27.48;13.68;;;;;;;3.35;58.38;97325.56;5028466;28;20046;-72
2022/03/27 05:00:35;;;;;;;27.83;14.02;;;;;;;3.35;58.31;97329.06;5029914;28;20050;-72
2022/03/27 05:03:01;;;;;;;26.00;13.20;;;;;;;3.35;58.51;97331.75;5030031;28;20045;-72
2022/03/27 05:05:30;;;;;;;30.25;14.38;;;;;;;3.35;58.62;97325.56;5029537;28;20747;-72
2022/03/27 05:07:58;;;;;;;26.73;13.68;;;;;;;3.35;58.73;97330.94;5030177;28;20045;-72
2022/03/27 05:10:25;;;;;;;26.42;13.43;;;;;;;3.30;59.09;97329.00;5029038;28;20714;-73
2022/03/27 05:12:52;;;;;;;28.17;14.02;;;;;;;3.28;58.97;97331.09;5030033;28;20644;-73
2022/03/27 05:15:19;;;;;;;29.90;13.55;;;;;;;3.24;57.74;97329.16;5028378;28;20575;-73
2022/03/27 05:17:47;;;;;;;27.05;13.88;;;;;;;3.25;58.20;97325.41;5030204;28;20052;-73
2022/03/27 05:20:14;;;;;;;31.13;13.88;;;;;;;3.20;59.29;97328.84;5028583;28;20068;-73
2022/03/27 05:22:42;;;;;;;26.35;13.48;;;;;;;3.21;59.30;97333.16;5029915;28;20483;-73
2022/03/27 05:25:10;;;;;;;25.25;13.10;;;;;;;3.20;59.22;97326.16;5028847;28;20168;-73
2022/03/27 05:27:43;;;;;;;25.77;13.25;;;;;;;3.19;59.36;97326.41;5029418;28;20132;-73
2022/03/27 05:30:10;;;;;;;29.67;13.82;;;;;;;3.20;59.36;97320.75;5029047;28;20050;-73
2022/03/27 05:32:37;;;;;;;23.35;12.85;;;;;;;3.21;59.35;97324.25;5029033;28;20045;-73
2022/03/27 05:35:04;;;;;;;23.13;12.32;;;;;;;3.22;59.24;97321.31;5029393;28;20053;-73
2022/03/27 05:37:31;;;;;;;29.38;13.75;;;;;;;3.22;59.31;97321.31;5028515;28;20045;-73
2022/03/27 05:39:58;;;;;;;24.42;12.63;;;;;;;3.25;59.12;97320.84;5030081;28;20064;-73
2022/03/27 05:42:25;;;;;;;27.15;14.50;;;;;;;3.29;59.10;97321.97;5028273;28;20107;-73
2022/03/27 05:44:51;;;;;;;24.52;12.30;;;;;;;3.37;59.32;97329.63;5029108;28;20053;-73
2022/03/27 05:47:18;;;;;;;24.45;13.25;;;;;;;3.30;59.25;97334.38;5033187;28;20045;-73
2022/03/27 05:49:44;;;;;;;24.88;12.85;;;;;;;3.38;59.01;97339.31;5029032;28;20046;-73
2022/03/27 05:52:14;;;;;;;25.60;12.63;;;;;;;3.49;59.42;97342.16;5028543;28;20081;-73
2022/03/27 05:54:40;;;;;;;24.40;13.05;;;;;;;3.52;58.64;97347.06;5028728;28;20064;-73
2022/03/27 05:57:08;;;;;;;26.23;13.65;;;;;;;3.57;58.30;97344.44;5028615;28;20057;-73
2022/03/27 05:59:35;;;;;;;30.25;13.80;;;;;;;3.61;59.07;97345.56;5028262;28;20450;-73
2022/03/27 06:02:01;;;;;;;23.55;13.10;;;;;;;3.69;60.02;97358.59;5042382;28;20102;-73
2022/03/27 06:04:29;;;;;;;25.17;13.32;;;;;;;3.77;60.50;97365.44;5048175;28;20527;-73
2022/03/27 06:06:55;;;;;;;24.17;12.98;;;;;;;3.80;60.64;97373.00;5048690;28;20511;-72
2022/03/27 06:09:22;;;;;;;27.05;13.70;;;;;;;3.84;60.07;97372.25;5047842;28;20053;-73
2022/03/27 06:11:49;;;;;;;24.48;13.18;;;;;;;3.93;59.62;97369.97;5048797;28;20522;-73
2022/03/27 06:14:17;;;;;;;30.08;13.63;;;;;;;4.04;59.50;97376.28;5047887;28;20135;-72
2022/03/27 06:16:43;;;;;;;26.67;13.32;;;;;;;4.16;58.97;97380.47;5035018;28;20050;-73
2022/03/27 06:19:10;;;;;;;29.23;13.48;;;;;;;4.28;58.74;97387.59;5028611;28;20111;-72
2022/03/27 06:21:37;;;;;;;30.50;13.48;;;;;;;4.41;58.13;97388.03;5027942;28;20057;-74
2022/03/27 06:24:04;;;;;;;27.95;13.55;;;;;;;4.54;57.55;97381.44;5028860;28;20049;-73
2022/03/27 06:26:30;;;;;;;33.65;13.65;;;;;;;4.68;56.73;97376.44;5027948;28;20419;-73
2022/03/27 06:28:57;;;;;;;26.85;12.75;;;;;;;4.81;56.17;97370.66;5028950;28;20053;-73
2022/03/27 06:31:25;;;;;;;29.05;13.57;;;;;;;4.95;55.87;97377.22;5027462;28;20053;-73
2022/03/27 06:33:51;;;;;;;27.58;13.45;;;;;;;5.09;54.80;97368.72;5028834;28;20049;-73
2022/03/27 06:36:18;;;;;;;36.67;15.32;;;;;;;5.20;54.19;97381.22;5027640;28;20048;-73
2022/03/27 06:38:45;;;;;;;29.45;13.82;;;;;;;5.31;53.74;97366.72;5028215;28;20152;-73
2022/03/27 06:41:11;;;;;;;33.83;15.15;;;;;;;5.45;52.86;97367.91;5027846;28;20076;-73
2022/03/27 06:43:37;;;;;;;34.60;15.07;;;;;;;5.58;52.88;97374.72;5028062;28;20052;-73
2022/03/27 06:46:05;;;;;;;26.55;14.10;;;;;;;5.70;52.32;97371.84;5033029;28;20049;-74
2022/03/27 06:48:33;;;;;;;31.65;14.13;;;;;;;5.82;52.19;97375.16;5027334;28;20046;-73
2022/03/27 06:51:00;;;;;;;31.42;14.70;;;;;;;5.95;52.33;97374.72;5028711;28;20500;-73
2022/03/27 06:53:26;;;;;;;36.85;15.23;;;;;;;6.09;52.45;97375.03;5027108;28;20128;-74
2022/03/27 06:55:53;;;;;;;33.22;15.75;;;;;;;6.24;51.44;97376.97;5028120;28;20060;-73
2022/03/27 06:58:19;;;;;;;34.72;14.88;;;;;;;6.36;50.74;97380.25;5027265;28;20107;-74
2022/03/27 07:03:30;;;;;;;28.80;14.65;;;;;;;6.55;50.06;97372.47;5027871;28;20075;-73
2022/03/27 07:05:58;;;;;;;31.30;15.07;;;;;;;6.72;50.13;97369.53;5027005;28;20052;-74
2022/03/27 07:08:24;;;;;;;30.33;13.98;;;;;;;6.81;49.53;97376.06;5028014;28;20071;-73
2022/03/27 07:10:51;;;;;;;38.80;16.52;;;;;;;6.97;49.34;97371.47;5027130;28;20056;-74
2022/03/27 07:13:19;;;;;;;33.72;16.27;;;;;;;7.21;49.70;97369.06;5030100;28;20065;-74
2022/03/27 07:15:48;;;;;;;36.10;15.80;;;;;;;7.45;49.55;97369.28;5043124;28;20045;-73
2022/03/27 07:18:16;;;;;;;31.63;15.75;;;;;;;8.32;47.58;97367.97;5047018;28;20053;-73
2022/03/27 07:20:44;;;;;;;32.35;15.70;;;;;;;9.51;43.73;97371.53;5036659;28;20067;-73
2022/03/27 07:23:14;;;;;;;35.13;15.65;;;;;;;10.54;41.21;97372.03;5027196;28;20080;-74
2022/03/27 07:25:43;;;;;;;28.83;15.32;;;;;;;11.37;39.67;97370.50;5027562;28;20049;-74
2022/03/27 07:28:11;;;;;;;35.67;16.42;;;;;;;12.19;37.37;97362.50;5026611;28;20045;-74
2022/03/27 07:30:40;;;;;;;29.95;15.45;;;;;;;12.73;36.63;97363.53;5028124;28;20061;-74
2022/03/27 07:33:07;;;;;;;27.13;14.95;;;;;;;13.42;35.27;97366.09;5026303;28;20520;-73
2022/03/27 07:35:34;;;;;;;29.27;15.73;;;;;;;14.01;33.81;97371.41;5027788;28;20056;-73
2022/03/27 07:38:01;;;;;;;33.65;15.75;;;;;;;14.47;32.58;97376.44;5026761;28;20131;-74
2022/03/27 07:40:29;;;;;;;30.15;15.95;;;;;;;15.02;32.86;97373.16;5027176;28;20821;-73
2022/03/27 07:42:57;;;;;;;35.33;16.88;;;;;;;15.61;32.55;97367.97;5026896;28;20050;-73
2022/03/27 07:45:25;;;;;;;31.75;16.83;;;;;;;16.12;30.38;97379.16;5026583;28;20128;-74
2022/03/27 07:47:52;;;;;;;31.45;17.30;;;;;;;16.52;29.65;97373.31;5026938;28;20060;-74
2022/03/27 07:50:21;;;;;;;29.35;15.98;;;;;;;16.88;29.69;97370.06;5026326;28;20112;-74
2022/03/27 07:52:47;;;;;;;28.85;16.15;;;;;;;17.03;29.36;97365.94;5027163;28;20056;-73
2022/03/27 07:55:15;;;;;;;31.63;16.33;;;;;;;17.26;29.07;97358.13;5026071;28;20053;-75
2022/03/27 07:57:43;;;;;;;32.20;17.83;;;;;;;17.61;29.55;97359.41;5027249;28;20045;-74
2022/03/27 08:00:12;;;;;;;32.58;16.35;;;;;;;18.10;28.42;97359.56;5026071;28;20057;-73
2022/03/27 08:02:38;;;;;;;30.75;16.95;;;;;;;18.49;27.82;97357.31;5027077;28;20049;-75
2022/03/27 08:05:05;;;;;;;29.77;15.98;;;;;;;18.77;27.44;97357.41;5026135;28;20057;-74
2022/03/27 08:07:32;;;;;;;27.77;16.30;;;;;;;18.98;26.95;97355.31;5026618;28;20420;-74
2022/03/27 08:09:59;;;;;;;25.55;16.20;;;;;;;19.26;27.08;97354.53;5026826;28;20127;-74
2022/03/27 08:12:27;;;;;;;27.67;15.93;;;;;;;19.46;26.39;97359.06;5025828;28;20763;-74
2022/03/27 08:14:55;;;;;;;25.67;16.38;;;;;;;19.59;27.08;97354.34;5027159;28;20049;-74
2022/03/27 08:17:22;;;;;;;26.52;15.80;;;;;;;19.80;26.43;97357.69;5026096;28;22715;-73
2022/03/27 08:19:50;;;;;;;29.88;16.73;;;;;;;19.79;26.47;97360.81;5027128;28;20057;-73
2022/03/27 08:22:19;;;;;;;28.10;15.63;;;;;;;19.94;26.23;97345.41;5025356;28;20136;-76
2022/03/27 08:24:46;;;;;;;27.15;15.57;;;;;;;20.13;26.12;97353.81;5026231;28;20073;-76
2022/03/27 08:27:11;;;;;;;25.52;15.30;;;;;;;20.20;25.98;97348.47;5025127;28;20543;-77
2022/03/27 08:29:41;;;;;;;25.15;16.08;;;;;;;20.31;25.49;97351.50;5026819;28;20053;-76
2022/03/27 08:32:12;;;;;;;26.38;16.35;;;;;;;20.51;25.56;97347.66;5025898;28;20103;-75
2022/03/27 08:34:39;;;;;;;26.58;16.33;;;;;;;21.00;25.63;97354.72;5026125;28;20056;-77
2022/03/27 08:37:08;;;;;;;27.45;16.40;;;;;;;21.20;23.93;97355.56;5026016;28;20104;-75
2022/03/27 08:39:34;;;;;;;27.90;16.65;;;;;;;21.44;24.16;97360.84;5025808;28;20123;-75
2022/03/27 08:42:01;;;;;;;26.88;15.75;;;;;;;21.49;23.62;97356.97;5026531;28;20508;-75
2022/03/27 08:44:30;;;;;;;24.85;16.05;;;;;;;21.85;23.11;97359.28;5025354;28;20038;-76
2022/03/27 08:46:58;;;;;;;26.15;16.85;;;;;;;21.64;24.00;97364.41;5026772;28;20073;-76
2022/03/27 08:49:41;;;;;;;21.52;15.57;;;;;;;21.82;23.39;97364.75;5025135;28;20080;-76
2022/03/27 08:52:11;;;;;;;27.15;16.35;;;;;;;22.09;23.22;97363.69;5025095;28;20683;-76
2022/03/27 08:54:43;;;;;;;28.52;17.13;;;;;;;21.92;23.44;97355.84;5026267;28;20133;-75
2022/03/27 08:57:22;;;;;;;25.55;16.73;;;;;;;21.90;22.98;97363.72;5024983;28;20155;-75
2022/03/27 08:59:52;;;;;;;28.02;15.60;;;;;;;22.37;22.63;97366.19;5026112;28;20061;-75
2022/03/27 09:02:19;;;;;;;25.15;15.00;;;;;;;22.44;22.13;97362.72;5024013;28;20053;-75
2022/03/27 09:04:48;;;;;;;25.48;16.58;;;;;;;22.01;22.56;97361.94;5026158;28;20045;-76
2022/03/27 09:07:14;;;;;;;26.10;14.82;;;;;;;21.61;23.09;97363.19;5023830;28;20151;-77
2022/03/27 09:09:41;;;;;;;24.70;16.27;;;;;;;21.77;23.49;97356.72;5028878;28;20601;-75
2022/03/27 09:12:10;;;;;;;27.88;16.38;;;;;;;21.96;22.85;97353.94;5024304;28;20058;-75
2022/03/27 09:14:38;;;;;;;26.70;15.65;;;;;;;21.76;23.29;97360.69;5025451;28;20060;-74
2022/03/27 09:17:07;;;;;;;26.00;15.55;;;;;;;21.45;23.29;97351.34;5029525;28;20041;-74
2022/03/27 09:19:39;;;;;;;28.67;15.90;;;;;;;21.39;24.04;97358.34;5024427;28;20048;-74
2022/03/27 09:22:15;;;;;;;25.90;15.85;;;;;;;21.41;24.08;97356.03;5025072;28;20107;-75
2022/03/27 09:24:42;;;;;;;24.45;16.52;;;;;;;21.20;23.89;97355.56;5023507;28;20693;-74
2022/03/27 09:27:09;;;;;;;25.23;15.88;;;;;;;21.22;23.96;97353.22;5024334;28;20064;-75
2022/03/27 09:29:57;;;;;;;24.98;15.80;;;;;;;21.15;24.63;97348.34;5025065;28;20109;-74
2022/03/27 09:32:30;;;;;;;27.73;16.23;;;;;;;21.01;23.88;97351.59;5024862;28;20045;-75
2022/03/27 09:35:02;;;;;;;28.75;15.52;;;;;;;21.23;24.22;97343.75;5025534;28;20050;-74
2022/03/27 09:37:32;;;;;;;24.38;14.70;;;;;;;21.29;23.25;97348.63;5027800;28;20037;-74
2022/03/27 09:39:59;;;;;;;24.75;16.08;;;;;;;21.34;23.49;97350.34;5029469;28;20049;-75
2022/03/27 09:42:26;;;;;;;30.95;15.90;;;;;;;21.55;23.32;97350.78;5026854;28;20057;-75
2022/03/27 09:45:15;;;;;;;27.85;15.82;;;;;;;21.50;22.33;97341.94;5029296;28;20053;-75
2022/03/27 09:47:42;;;;;;;25.17;15.80;;;;;;;21.54;23.01;97351.94;5029081;28;20049;-74
2022/03/27 09:50:28;;;;;;;25.48;14.82;;;;;;;21.70;23.60;97353.81;5028414;28;20571;-74
2022/03/27 09:53:20;;;;;;;23.55;15.75;;;;;;;21.88;23.29;97347.47;5029154;28;20053;-74
2022/03/27 09:55:48;;;;;;;26.25;15.35;;;;;;;22.00;22.46;97352.03;5028280;28;20045;-74
2022/03/27 09:58:15;;;;;;;22.92;14.82;;;;;;;21.95;22.00;97352.34;5028604;28;20516;-74
2022/03/27 10:00:42;;;;;;;26.00;14.73;;;;;;;22.03;22.80;97351.31;5028603;28;20103;-74
2022/03/27 10:03:10;;;;;;;26.20;14.98;;;;;;;21.95;21.80;97351.53;5028373;28;20049;-74
2022/03/27 10:05:37;;;;;;;27.88;15.93;;;;;;;21.87;22.41;97345.88;5028511;28;20045;-75
2022/03/27 10:08:06;;;;;;;38.25;17.42;;;;;;;21.83;24.04;97341.44;5027792;28;20390;-74
2022/03/27 10:10:33;;;;;;;28.10;16.30;;;;;;;21.91;22.79;97345.91;5028938;28;20053;-74
2022/03/27 10:13:00;;;;;;;24.50;14.48;;;;;;;21.88;23.61;97338.34;5028030;28;20547;-74
2022/03/27 10:15:28;;;;;;;34.67;15.60;;;;;;;21.96;22.98;97339.25;5028676;28;20053;-74
2022/03/27 10:17:58;;;;;;;29.13;15.73;;;;;;;21.96;23.28;97342.84;5027850;28;20432;-74
2022/03/27 10:20:28;;;;;;;27.08;15.30;;;;;;;21.86;22.38;97337.91;5028702;28;20507;-74
2022/03/27 10:23:02;;;;;;;27.13;15.93;;;;;;;21.56;22.78;97335.78;5028123;28;20447;-74
2022/03/27 10:25:35;;;;;;;32.47;15.10;;;;;;;21.35;24.28;97330.59;5028329;28;20464;-74
2022/03/27 10:28:02;;;;;;;28.77;15.23;;;;;;;21.03;24.04;97335.41;5028049;28;20057;-73
2022/03/27 10:30:29;;;;;;;29.70;16.63;;;;;;;20.92;24.04;97333.56;5028081;28;20103;-74
2022/03/27 10:32:57;;;;;;;29.13;16.23;;;;;;;20.81;25.57;97325.03;5028372;28;20049;-75
2022/03/27 10:35:48;;;;;;;26.50;15.82;;;;;;;20.73;25.32;97318.53;5027054;28;20540;-75
2022/03/27 10:38:23;;;;;;;27.80;16.15;;;;;;;20.71;25.64;97318.09;5028116;28;20500;-76
2022/03/27 10:41:00;;;;;;;25.90;15.38;;;;;;;20.66;24.52;97314.81;5027714;28;20133;-76
2022/03/27 10:43:36;;;;;;;29.40;16.40;;;;;;;20.77;24.84;97316.63;5028142;28;20057;-76
2022/03/27 10:46:14;;;;;;;30.92;15.70;;;;;;;20.74;24.73;97311.03;5028176;28;20053;-76
2022/03/27 10:48:42;;;;;;;29.98;15.25;;;;;;;20.61;24.59;97320.59;5026745;28;20488;-75
2022/03/27 10:51:09;;;;;;;27.33;15.23;;;;;;;20.48;24.40;97309.66;5027811;28;20084;-75
2022/03/27 10:53:35;;;;;;;25.80;14.85;;;;;;;20.55;24.35;97309.03;5027351;28;20048;-76
2022/03/27 10:56:04;;;;;;;28.80;15.30;;;;;;;20.46;24.94;97317.50;5027676;28;20056;-75
2022/03/27 10:58:39;;;;;;;28.85;15.48;;;;;;;20.50;25.51;97301.78;5027211;28;20134;-78
2022/03/27 11:01:09;;;;;;;27.98;15.77;;;;;;;20.54;23.99;97307.41;5027180;28;20049;-75
2022/03/27 11:03:44;;;;;;;28.15;15.38;;;;;;;20.58;24.75;97298.03;5027290;28;20053;-76
2022/03/27 11:06:22;;;;;;;29.52;16.35;;;;;;;20.64;24.40;97295.00;5026220;28;20057;-76
2022/03/27 11:08:49;;;;;;;30.08;15.82;;;;;;;20.65;24.10;97296.59;5027781;28;20064;-77
2022/03/27 11:11:54;;;;;;;27.83;15.45;;;;;;;20.70;24.57;97297.13;5026252;28;20050;-75
2022/03/27 11:15:00;;;;;;;26.02;15.60;;;;;;;20.80;23.46;97288.25;5027241;28;20574;-76
2022/03/27 11:17:42;;;;;;;45.35;17.90;;;;;;;20.79;23.34;97294.16;5027766;28;20053;-76
2022/03/27 11:20:12;;;;;;;37.10;15.70;;;;;;;20.82;23.63;97290.66;5026006;28;20046;-75
2022/03/27 11:22:43;;;;;;;33.22;16.95;;;;;;;20.85;23.57;97281.63;5027801;28;20056;-76
2022/03/27 11:25:30;;;;;;;30.25;16.08;;;;;;;20.88;24.10;97289.22;5025738;28;20046;-76
2022/03/27 11:28:05;;;;;;;27.05;14.93;;;;;;;20.85;22.08;97281.63;5027358;28;20064;-76
2022/03/27 11:30:33;;;;;;;61.85;32.45;;;;;;;20.95;22.74;97278.28;5027034;28;20124;-76
2022/03/27 11:33:16;;;;;;;35.97;15.27;;;;;;;21.02;22.64;97278.44;5026785;28;20061;-76